createdAt,value
2023-03-08T00:01:19.859Z,7.55
2023-03-08T00:03:46.872Z,12.60
2023-03-08T00:06:16.684Z,8.40
2023-03-08T00:08:43.619Z,11.47
2023-03-08T00:11:12.517Z,9.27
2023-03-08T00:13:39.870Z,8.60
2023-03-08T00:16:09.671Z,11.75
2023-03-08T00:18:37.092Z,7.80
2023-03-08T00:21:09.753Z,8.83
2023-03-08T00:23:36.754Z,10.18
2023-03-08T00:26:04.191Z,9.50
2023-03-08T00:28:31.498Z,6.43
2023-03-08T00:31:10.374Z,6.85
2023-03-08T00:33:38.089Z,8.63
2023-03-08T00:36:19.162Z,7.70
2023-03-08T00:38:47.935Z,9.82
2023-03-08T00:41:15.597Z,7.22
2023-03-08T00:43:43.561Z,6.68
2023-03-08T00:46:11.445Z,7.77
2023-03-08T00:48:47.291Z,8.98
2023-03-08T00:51:17.245Z,10.68
2023-03-08T00:53:44.771Z,9.10
2023-03-08T00:56:15.159Z,5.25
2023-03-08T00:58:45.950Z,7.00
2023-03-08T01:01:17.014Z,6.35
2023-03-08T01:03:45.898Z,10.98
2023-03-08T01:06:17.742Z,7.18
2023-03-08T01:08:46.911Z,7.13
2023-03-08T01:11:23.150Z,6.50
2023-03-08T01:13:51.525Z,7.80
2023-03-08T01:16:26.452Z,6.70
2023-03-08T01:18:57.008Z,6.20
2023-03-08T01:21:25.293Z,6.68
2023-03-08T01:23:52.763Z,8.13
2023-03-08T01:26:26.242Z,12.70
2023-03-08T01:28:56.869Z,8.52
2023-03-08T01:31:27.256Z,6.22
2023-03-08T01:33:56.324Z,10.77
2023-03-08T01:36:25.837Z,5.30
2023-03-08T01:38:53.206Z,8.45
2023-03-08T01:41:24.806Z,7.00
2023-03-08T01:43:52.238Z,6.88
2023-03-08T01:46:28.587Z,5.97
2023-03-08T01:49:28.596Z,6.13
2023-03-08T01:52:03.098Z,6.88
2023-03-08T01:54:49.196Z,5.32
2023-03-08T01:57:21.408Z,5.95
2023-03-08T01:59:51.164Z,6.30
2023-03-08T02:02:24.556Z,6.77
2023-03-08T02:04:53.367Z,6.05
2023-03-08T02:07:21.035Z,4.60
2023-03-08T02:09:49.731Z,8.18
2023-03-08T02:12:17.635Z,5.28
2023-03-08T02:14:45.699Z,6.93
2023-03-08T02:17:18.504Z,7.13
2023-03-08T02:19:48.167Z,5.68
2023-03-08T02:22:16.717Z,7.18
2023-03-08T02:24:50.019Z,5.47
2023-03-08T02:27:24.168Z,5.67
2023-03-08T02:29:51.379Z,5.70
2023-03-08T02:32:18.614Z,6.75
2023-03-08T02:34:48.568Z,5.95
2023-03-08T02:37:21.921Z,6.50
2023-03-08T02:39:49.114Z,7.17
2023-03-08T02:42:16.260Z,6.40
2023-03-08T02:44:48.992Z,6.30
2023-03-08T02:47:16.969Z,6.65
2023-03-08T02:49:44.804Z,8.88
2023-03-08T02:52:12.109Z,6.77
2023-03-08T02:54:41.864Z,6.18
2023-03-08T02:57:11.359Z,6.38
2023-03-08T02:59:38.939Z,7.47
2023-03-08T03:02:06.365Z,6.18
2023-03-08T03:04:34.545Z,8.30
2023-03-08T03:07:02.113Z,9.20
2023-03-08T03:09:34.668Z,9.82
2023-03-08T03:12:02.246Z,8.27
2023-03-08T03:14:32.072Z,9.70
2023-03-08T03:17:00.098Z,8.07
2023-03-08T03:19:27.008Z,10.18
2023-03-08T03:21:54.339Z,13.45
2023-03-08T03:24:21.283Z,11.82
2023-03-08T03:26:53.467Z,10.52
2023-03-08T03:29:22.636Z,11.30
2023-03-08T03:31:56.329Z,13.75
2023-03-08T03:34:26.322Z,17.40
2023-03-08T03:36:54.612Z,17.92
2023-03-08T03:39:21.984Z,25.30
2023-03-08T03:41:49.277Z,27.90
2023-03-08T03:44:16.559Z,29.63
2023-03-08T03:46:46.382Z,55.60
2023-03-08T03:49:16.329Z,98.43
2023-03-08T03:51:46.944Z,104.57
2023-03-08T03:54:19.599Z,106.80
2023-03-08T03:56:48.342Z,79.40
2023-03-08T03:59:18.221Z,80.95
2023-03-08T04:01:46.187Z,82.35
2023-03-08T04:04:20.628Z,94.63
2023-03-08T04:06:48.760Z,43.23
2023-03-08T04:09:19.955Z,36.40
2023-03-08T04:11:55.505Z,53.72
2023-03-08T04:14:27.344Z,72.93
2023-03-08T04:16:55.513Z,70.45
2023-03-08T04:19:31.668Z,69.27
2023-03-08T04:21:59.242Z,53.33
2023-03-08T04:24:31.981Z,50.70
2023-03-08T04:27:03.110Z,84.90
2023-03-08T04:29:30.904Z,69.40
2023-03-08T04:32:00.345Z,47.17
2023-03-08T04:34:39.725Z,40.85
2023-03-08T04:37:09.135Z,62.40
2023-03-08T04:39:39.440Z,62.60
2023-03-08T04:42:09.863Z,52.90
2023-03-08T04:44:36.837Z,60.40
2023-03-08T04:47:06.750Z,94.13
2023-03-08T04:49:43.068Z,72.25
2023-03-08T04:52:10.307Z,62.60
2023-03-08T04:54:39.429Z,56.83
2023-03-08T04:57:35.657Z,49.90
2023-03-08T05:00:06.179Z,56.35
2023-03-08T05:02:41.681Z,56.05
2023-03-08T05:05:14.283Z,62.65
2023-03-08T05:07:42.564Z,95.15
2023-03-08T05:10:18.235Z,66.07
2023-03-08T05:12:48.673Z,64.05
2023-03-08T05:15:15.910Z,69.65
2023-03-08T05:17:43.084Z,56.00
2023-03-08T05:20:15.334Z,48.08
2023-03-08T05:22:57.285Z,47.63
2023-03-08T05:25:31.848Z,53.80
2023-03-08T05:28:02.490Z,55.88
2023-03-08T05:30:33.036Z,71.78
2023-03-08T05:32:59.978Z,46.17
2023-03-08T05:35:27.065Z,55.77
2023-03-08T05:37:53.972Z,74.45
2023-03-08T05:40:20.958Z,51.70
2023-03-08T05:42:48.144Z,45.78
2023-03-08T05:45:16.340Z,58.03
2023-03-08T05:47:43.706Z,61.27
2023-03-08T05:50:11.136Z,53.22
2023-03-08T05:52:42.643Z,42.22
2023-03-08T05:55:13.413Z,35.85
2023-03-08T05:57:40.726Z,35.13
2023-03-08T06:00:10.793Z,38.10
2023-03-08T06:03:05.335Z,33.65
2023-03-08T06:05:35.393Z,32.38
2023-03-08T06:08:02.263Z,33.75
2023-03-08T06:10:29.373Z,30.30
2023-03-08T06:12:56.576Z,34.37
2023-03-08T06:16:02.971Z,43.53
2023-03-08T06:18:32.190Z,42.30
2023-03-08T06:21:05.012Z,35.17
2023-03-08T06:23:40.174Z,34.92
2023-03-08T06:26:09.953Z,36.03
2023-03-08T06:28:40.514Z,35.65
2023-03-08T06:31:12.459Z,33.35
2023-03-08T06:33:39.599Z,36.13
2023-03-08T06:36:10.973Z,29.08
2023-03-08T06:38:39.834Z,33.07
2023-03-08T06:41:08.152Z,31.55
2023-03-08T06:43:36.593Z,30.52
2023-03-08T06:46:05.358Z,43.40
2023-03-08T06:48:32.287Z,31.48
2023-03-08T06:50:59.167Z,36.67
2023-03-08T06:53:26.976Z,29.42
2023-03-08T06:56:03.151Z,34.50
2023-03-08T06:58:32.534Z,30.15
2023-03-08T07:01:00.179Z,34.70
2023-03-08T07:03:28.031Z,33.83
2023-03-08T07:06:08.961Z,35.80
2023-03-08T07:08:36.933Z,33.58
2023-03-08T07:11:04.078Z,30.83
2023-03-08T07:13:33.574Z,28.33
2023-03-08T07:16:06.692Z,32.40
2023-03-08T07:18:33.855Z,35.10
2023-03-08T07:21:00.653Z,34.70
2023-03-08T07:23:27.591Z,34.50
2023-03-08T07:25:54.922Z,37.30
2023-03-08T07:28:22.723Z,35.43
2023-03-08T07:30:51.627Z,32.80
2023-03-08T07:33:19.780Z,33.35
2023-03-08T07:35:47.153Z,34.55
2023-03-08T07:38:15.124Z,31.52
2023-03-08T07:40:42.018Z,31.67
2023-03-08T07:43:08.907Z,34.15
2023-03-08T07:45:44.874Z,30.50
2023-03-08T07:48:11.597Z,30.60
2023-03-08T07:50:38.613Z,36.75
2023-03-08T07:53:05.318Z,30.17
2023-03-08T07:55:32.243Z,34.60
2023-03-08T07:57:59.048Z,35.13
2023-03-08T08:00:26.276Z,31.55
2023-03-08T08:02:54.198Z,28.05
2023-03-08T08:05:24.544Z,34.13
2023-03-08T08:07:51.485Z,30.02
2023-03-08T08:10:21.466Z,27.58
2023-03-08T08:12:48.204Z,30.48
2023-03-08T08:15:16.517Z,27.58
2023-03-08T08:17:43.385Z,33.57
2023-03-08T08:20:11.194Z,28.92
2023-03-08T08:22:38.439Z,40.17
2023-03-08T08:25:06.921Z,33.25
2023-03-08T08:27:34.374Z,29.52
2023-03-08T08:30:04.789Z,38.90
2023-03-08T08:32:35.104Z,31.38
2023-03-08T08:35:02.367Z,27.88
2023-03-08T08:37:30.777Z,28.45
2023-03-08T08:39:58.022Z,30.13
2023-03-08T08:42:26.611Z,29.77
2023-03-08T08:44:54.160Z,32.13
2023-03-08T08:47:24.704Z,26.05
2023-03-08T08:49:52.423Z,26.40
2023-03-08T08:52:19.297Z,31.67
2023-03-08T08:54:46.174Z,29.60
2023-03-08T08:57:13.038Z,30.70
2023-03-08T08:59:40.137Z,30.60
2023-03-08T09:02:07.492Z,25.42
2023-03-08T09:04:35.048Z,30.35
2023-03-08T09:07:02.036Z,27.63
2023-03-08T09:09:28.827Z,29.17
2023-03-08T09:11:56.170Z,27.15
2023-03-08T09:14:23.689Z,27.20
2023-03-08T09:16:50.737Z,30.70
2023-03-08T09:19:17.672Z,30.37
2023-03-08T09:21:44.426Z,25.05
2023-03-08T09:24:14.970Z,27.70
2023-03-08T09:26:44.729Z,25.60
2023-03-08T09:29:14.648Z,23.30
2023-03-08T09:31:42.505Z,26.90
2023-03-08T09:34:12.000Z,27.95
2023-03-08T09:36:41.665Z,27.10
2023-03-08T09:39:10.344Z,27.55
2023-03-08T09:41:54.976Z,26.15
2023-03-08T09:44:44.000Z,29.90
2023-03-08T09:47:19.434Z,26.67
2023-03-08T09:49:52.386Z,27.67
2023-03-08T09:52:31.272Z,28.15
2023-03-08T09:55:02.974Z,27.80
2023-03-08T09:57:37.114Z,27.80
2023-03-08T10:00:08.484Z,27.42
2023-03-08T10:02:47.698Z,28.33
2023-03-08T10:05:41.721Z,30.83
2023-03-08T10:08:20.925Z,25.17
2023-03-08T10:11:13.597Z,27.97
2023-03-08T10:13:43.003Z,36.00
2023-03-08T10:16:30.064Z,31.00
2023-03-08T10:19:03.916Z,30.50
2023-03-08T10:21:32.801Z,31.35
2023-03-08T10:24:03.828Z,32.93
2023-03-08T10:26:31.254Z,35.47
2023-03-08T10:28:57.957Z,38.55
2023-03-08T10:31:30.406Z,39.15
2023-03-08T10:34:20.382Z,36.47
2023-03-08T10:36:52.965Z,41.17
2023-03-08T10:39:21.234Z,42.10
2023-03-08T10:41:51.470Z,39.70
2023-03-08T10:44:42.663Z,38.85
2023-03-08T10:47:18.341Z,37.63
2023-03-08T10:49:47.266Z,32.00
2023-03-08T10:52:28.092Z,41.00
2023-03-08T10:55:14.809Z,36.17
2023-03-08T10:57:48.206Z,37.88
2023-03-08T11:00:21.079Z,33.17
2023-03-08T11:02:48.771Z,37.73
2023-03-08T11:05:20.797Z,35.17
2023-03-08T11:07:56.284Z,34.30
2023-03-08T11:10:32.443Z,33.90
2023-03-08T11:13:03.348Z,38.25
2023-03-08T11:15:46.690Z,34.83
2023-03-08T11:18:51.720Z,32.47
2023-03-08T11:21:46.460Z,30.65
2023-03-08T11:24:37.538Z,33.78
2023-03-08T11:27:13.520Z,35.72
2023-03-08T11:29:46.734Z,33.40
2023-03-08T11:32:31.503Z,33.78
2023-03-08T11:35:15.579Z,33.67
2023-03-08T11:38:20.064Z,27.40
2023-03-08T11:41:16.694Z,32.67
2023-03-08T11:44:05.411Z,29.90
2023-03-08T11:46:57.951Z,29.02
2023-03-08T11:49:44.100Z,29.83
2023-03-08T11:52:33.122Z,30.88
2023-03-08T11:55:16.172Z,24.00
2023-03-08T11:57:49.801Z,29.47
2023-03-08T12:00:28.391Z,22.67
2023-03-08T12:02:59.584Z,24.52
2023-03-08T12:05:40.286Z,23.50
2023-03-08T12:08:59.537Z,20.55
2023-03-08T12:11:35.598Z,22.43
2023-03-08T12:14:27.529Z,22.88
2023-03-08T12:17:15.993Z,24.38
2023-03-08T12:19:45.679Z,22.63
2023-03-08T12:22:32.138Z,19.92
2023-03-08T12:25:41.252Z,21.83
2023-03-08T12:28:31.626Z,26.83
2023-03-08T12:31:27.268Z,21.23
2023-03-08T12:33:56.768Z,21.33
2023-03-08T12:36:37.530Z,24.75
2023-03-08T12:39:32.152Z,22.50
2023-03-08T12:41:58.795Z,26.23
2023-03-08T12:44:31.038Z,22.30
2023-03-08T12:47:04.046Z,26.05
2023-03-08T12:49:41.545Z,24.42
2023-03-08T12:52:20.333Z,24.23
2023-03-08T12:55:17.466Z,24.00
2023-03-08T12:57:52.123Z,25.52
2023-03-08T13:00:46.684Z,25.75
2023-03-08T13:03:41.420Z,28.60
2023-03-08T13:06:28.918Z,27.83
2023-03-08T13:09:30.683Z,25.58
2023-03-08T13:12:18.228Z,26.02
2023-03-08T13:15:11.266Z,26.50
2023-03-08T13:17:49.476Z,28.40
2023-03-08T13:20:57.903Z,23.37
2023-03-08T13:23:36.358Z,22.38
2023-03-08T13:26:09.053Z,20.88
2023-03-08T13:28:47.086Z,17.50
2023-03-08T13:31:19.431Z,16.90
2023-03-08T13:33:56.772Z,16.07
2023-03-08T13:36:28.970Z,18.83
2023-03-08T13:39:07.708Z,16.70
2023-03-08T13:41:38.314Z,16.23
2023-03-08T13:44:25.858Z,14.93
2023-03-08T13:46:56.332Z,18.83
2023-03-08T13:49:37.001Z,18.38
2023-03-08T13:52:21.242Z,17.63
2023-03-08T13:54:57.453Z,18.25
2023-03-08T13:57:30.525Z,17.50
2023-03-08T14:00:02.099Z,16.17
2023-03-08T14:05:43.840Z,18.63
2023-03-08T14:08:23.396Z,18.73
2023-03-08T14:11:06.633Z,16.13
2023-03-08T14:13:35.944Z,17.13
2023-03-08T14:16:05.841Z,17.27
2023-03-08T14:18:41.996Z,21.13
2023-03-08T14:21:29.425Z,19.70
2023-03-08T14:24:00.483Z,19.73
2023-03-08T14:26:39.709Z,18.13
2023-03-08T14:29:24.123Z,17.10
2023-03-08T14:32:06.828Z,19.95
2023-03-08T14:34:39.542Z,17.23
2023-03-08T14:37:12.114Z,17.77
2023-03-08T14:39:42.318Z,23.43
2023-03-08T14:42:22.478Z,15.57
2023-03-08T14:45:00.579Z,19.10
2023-03-08T14:47:29.496Z,18.63
2023-03-08T14:50:07.403Z,17.88
2023-03-08T14:52:36.456Z,19.83
2023-03-08T14:55:04.568Z,16.70
2023-03-08T14:57:31.446Z,19.63
2023-03-08T15:00:14.786Z,16.95
2023-03-08T15:02:42.863Z,18.35
2023-03-08T15:05:22.451Z,20.53
2023-03-08T15:07:55.808Z,23.45
2023-03-08T15:10:31.797Z,21.13
2023-03-08T15:12:58.601Z,21.95
2023-03-08T15:15:25.664Z,20.05
2023-03-08T15:17:53.498Z,18.33
2023-03-08T15:20:20.744Z,18.77
2023-03-08T15:22:51.576Z,20.05
2023-03-08T15:25:24.034Z,19.88
2023-03-08T15:27:50.823Z,20.55
2023-03-08T15:30:20.558Z,17.37
2023-03-08T15:32:47.562Z,23.17
2023-03-08T15:35:14.504Z,20.13
2023-03-08T15:37:41.554Z,24.27
2023-03-08T15:40:20.142Z,24.80
2023-03-08T15:42:47.092Z,22.87
2023-03-08T15:45:14.493Z,25.75
2023-03-08T15:47:58.280Z,24.73
2023-03-08T15:50:25.955Z,24.85
2023-03-08T15:53:26.294Z,26.30
2023-03-08T15:55:59.791Z,29.80
2023-03-08T15:58:26.431Z,27.17
2023-03-08T16:00:53.426Z,25.75
2023-03-08T16:03:30.819Z,27.42
2023-03-08T16:05:58.694Z,27.08
2023-03-08T16:08:27.270Z,25.93
2023-03-08T16:10:54.028Z,30.30
2023-03-08T16:13:24.082Z,31.00
2023-03-08T16:15:50.742Z,25.80
2023-03-08T16:18:17.482Z,25.27
2023-03-08T16:20:46.388Z,31.67
2023-03-08T16:23:13.428Z,28.98
2023-03-08T16:25:43.232Z,20.75
2023-03-08T16:28:10.617Z,26.63
2023-03-08T16:30:41.056Z,25.95
2023-03-08T16:33:09.749Z,24.73
2023-03-08T16:35:36.478Z,20.98
2023-03-08T16:38:03.153Z,20.77
2023-03-08T16:40:31.304Z,23.67
2023-03-08T16:42:58.222Z,23.75
2023-03-08T16:45:25.172Z,24.67
2023-03-08T16:47:51.901Z,18.15
2023-03-08T16:50:18.643Z,20.33
2023-03-08T16:52:47.809Z,20.70
2023-03-08T16:55:14.647Z,21.15
2023-03-08T16:57:41.463Z,17.90
2023-03-08T17:00:12.353Z,23.40
2023-03-08T17:02:39.164Z,19.65
2023-03-08T17:05:06.756Z,20.15
2023-03-08T17:07:33.393Z,18.08
2023-03-08T17:10:00.850Z,18.33
2023-03-08T17:12:27.509Z,20.50
2023-03-08T17:14:54.176Z,20.33
2023-03-08T17:17:20.976Z,19.40
2023-03-08T17:19:51.414Z,17.58
2023-03-08T17:22:18.130Z,18.13
2023-03-08T17:24:58.795Z,20.20
2023-03-08T17:27:26.070Z,19.23
2023-03-08T17:29:52.829Z,18.85
2023-03-08T17:32:19.851Z,18.00
2023-03-08T17:34:46.471Z,20.47
2023-03-08T17:37:13.211Z,19.80
2023-03-08T17:39:48.793Z,17.80
2023-03-08T17:43:28.713Z,15.68
2023-03-08T17:46:03.293Z,15.07
2023-03-08T17:48:33.242Z,20.13
2023-03-08T17:51:18.035Z,16.90
2023-03-08T17:53:51.156Z,14.38
2023-03-08T17:56:21.396Z,18.73
2023-03-08T17:58:49.218Z,17.77
2023-03-08T18:01:22.586Z,17.00
2023-03-08T18:03:49.967Z,15.80
2023-03-08T18:06:27.852Z,14.27
2023-03-08T18:08:55.037Z,15.75
2023-03-08T18:11:21.688Z,18.50
2023-03-08T18:13:48.884Z,19.77
2023-03-08T18:16:15.538Z,17.40
2023-03-08T18:18:42.244Z,16.38
2023-03-08T18:21:13.885Z,16.13
2023-03-08T18:23:42.743Z,17.67
2023-03-08T18:26:11.025Z,17.67
2023-03-08T18:28:39.759Z,16.40
2023-03-08T18:31:08.914Z,17.38
2023-03-08T18:33:36.165Z,16.95
2023-03-08T18:36:03.813Z,18.27
2023-03-08T18:38:30.849Z,14.83
2023-03-08T18:40:57.714Z,15.40
2023-03-08T18:43:25.501Z,17.67
2023-03-08T18:45:54.178Z,16.10
2023-03-08T18:48:22.008Z,18.63
2023-03-08T18:50:51.904Z,17.23
2023-03-08T18:53:18.794Z,16.30
2023-03-08T18:55:56.623Z,17.48
2023-03-08T18:58:25.749Z,14.48
2023-03-08T19:00:58.972Z,17.52
2023-03-08T19:03:26.883Z,14.93
2023-03-08T19:05:53.618Z,14.73
2023-03-08T19:08:20.643Z,19.95
2023-03-08T19:10:47.343Z,19.42
2023-03-08T19:13:14.181Z,13.98
2023-03-08T19:15:41.003Z,20.47
2023-03-08T19:18:07.727Z,15.25
2023-03-08T19:20:39.359Z,16.25
2023-03-08T19:23:06.681Z,18.17
2023-03-08T19:25:34.580Z,13.15
2023-03-08T19:28:01.228Z,16.10
2023-03-08T19:30:31.167Z,16.88
2023-03-08T19:32:57.927Z,14.40
2023-03-08T19:35:24.726Z,14.27
2023-03-08T19:37:51.418Z,15.90
2023-03-08T19:40:18.371Z,14.47
2023-03-08T19:42:45.053Z,16.58
2023-03-08T19:45:12.382Z,16.17
2023-03-08T19:47:39.104Z,16.77
2023-03-08T19:50:06.543Z,15.73
2023-03-08T19:52:33.202Z,17.23
2023-03-08T19:54:59.950Z,15.38
2023-03-08T19:57:29.752Z,15.95
2023-03-08T19:59:57.822Z,16.73
2023-03-08T20:02:24.852Z,13.25
2023-03-08T20:04:51.790Z,15.70
2023-03-08T20:07:21.192Z,15.70
2023-03-08T20:09:52.492Z,14.52
2023-03-08T20:12:19.280Z,15.27
2023-03-08T20:14:46.208Z,13.75
2023-03-08T20:17:24.158Z,14.97
2023-03-08T20:19:50.921Z,14.65
2023-03-08T20:22:17.682Z,13.65
2023-03-08T20:24:44.468Z,11.80
2023-03-08T20:27:11.118Z,14.32
2023-03-08T20:29:37.800Z,13.53
2023-03-08T20:32:04.651Z,13.93
2023-03-08T20:34:32.255Z,12.73
2023-03-08T20:36:58.927Z,13.73
2023-03-08T20:39:25.722Z,13.25
2023-03-08T20:41:53.879Z,11.63
2023-03-08T20:44:20.598Z,15.25
2023-03-08T20:46:48.870Z,11.68
2023-03-08T20:49:16.737Z,14.85
2023-03-08T20:51:45.801Z,12.52
2023-03-08T20:54:12.511Z,12.20
2023-03-08T20:56:39.199Z,12.70
2023-03-08T20:59:06.005Z,13.27
2023-03-08T21:01:33.095Z,11.35
2023-03-08T21:03:59.935Z,12.35
2023-03-08T21:06:30.341Z,14.33
2023-03-08T21:08:59.797Z,11.55
2023-03-08T21:11:30.250Z,14.73
2023-03-08T21:13:57.039Z,13.05
2023-03-08T21:16:25.760Z,14.10
2023-03-08T21:18:54.677Z,12.50
2023-03-08T21:21:35.475Z,12.85
2023-03-08T21:24:08.544Z,14.77
2023-03-08T21:26:35.635Z,15.80
2023-03-08T21:29:06.403Z,13.32
2023-03-08T21:31:36.009Z,12.43
2023-03-08T21:34:04.501Z,14.05
2023-03-08T21:36:36.926Z,14.10
2023-03-08T21:39:05.262Z,13.00
2023-03-08T21:41:34.640Z,13.18
2023-03-08T21:44:02.815Z,12.63
2023-03-08T21:46:30.049Z,10.98
2023-03-08T21:48:57.342Z,12.85
2023-03-08T21:51:24.846Z,13.60
2023-03-08T21:53:51.615Z,11.82
2023-03-08T21:56:19.668Z,13.80
2023-03-08T21:58:46.407Z,18.25
2023-03-08T22:01:22.636Z,12.40
2023-03-08T22:03:50.058Z,12.63
2023-03-08T22:06:16.861Z,13.07
2023-03-08T22:08:44.165Z,15.03
2023-03-08T22:11:10.905Z,14.73
2023-03-08T22:13:37.718Z,14.18
2023-03-08T22:16:06.625Z,14.57
2023-03-08T22:18:33.240Z,12.43
2023-03-08T22:21:00.117Z,16.67
2023-03-08T22:23:27.459Z,16.50
2023-03-08T22:25:55.173Z,17.05
2023-03-08T22:28:22.096Z,12.40
2023-03-08T22:30:49.109Z,14.43
2023-03-08T22:33:16.003Z,14.03
2023-03-08T22:35:48.112Z,18.85
2023-03-08T22:38:18.254Z,16.40
2023-03-08T22:40:45.160Z,13.82
2023-03-08T22:43:11.924Z,16.20
2023-03-08T22:45:38.613Z,14.47
2023-03-08T22:48:06.931Z,13.13
2023-03-08T22:50:36.332Z,14.55
2023-03-08T22:53:03.314Z,12.52
2023-03-08T22:55:30.013Z,13.98
2023-03-08T22:57:56.717Z,14.90
2023-03-08T23:00:23.537Z,15.95
2023-03-08T23:02:50.595Z,14.40
2023-03-08T23:05:19.762Z,15.77
2023-03-08T23:07:46.662Z,15.35
2023-03-08T23:10:15.669Z,16.23
2023-03-08T23:12:43.006Z,16.23
2023-03-08T23:15:10.178Z,15.68
2023-03-08T23:17:37.038Z,14.50
2023-03-08T23:20:05.755Z,17.75
2023-03-08T23:22:32.672Z,14.87
2023-03-08T23:24:59.383Z,16.05
2023-03-08T23:27:26.219Z,14.68
2023-03-08T23:29:53.158Z,14.50
2023-03-08T23:32:19.969Z,15.13
2023-03-08T23:34:46.666Z,14.33
2023-03-08T23:37:13.604Z,15.27
2023-03-08T23:39:40.533Z,15.38
2023-03-08T23:42:08.742Z,16.63
2023-03-08T23:44:35.385Z,16.27
2023-03-08T23:47:02.378Z,15.70
2023-03-08T23:49:29.187Z,17.33
2023-03-08T23:51:56.181Z,15.60
2023-03-08T23:54:22.892Z,16.38
2023-03-08T23:56:49.626Z,16.30
2023-03-08T23:59:19.390Z,14.00
